• Join FlightAware (Why Join?)
  • Login
  • US Flag 
07:51PM EST


 

Airport Tracker/Info


-or-


 

Live Flight TrackerFlight Track Log ✈ N409RA ✈ 09-Jul-2013 ✈ KBOI - KTWF

Flight Track Log - Related Links

Times and Time Zones

All times are in EDT time to prevent confusion due to time zone crossing. See the N409RA flight status page for this flight to view local times or setup timezone preferences in your user account.

Time Position Orientation Groundspeed Altitude Reporting Facility
EDT Latitude Longitude Course Direction KTS MPH feet Rate Location/Type
04:49PM 43.5817 -116.2942 134° Southeast 161 185 4,700  Level Salt Lake Center
04:50PM 43.5906 -116.3581 281° West 164 189 6,200 1,380 Climbing Salt Lake Center
04:51PM 43.5411 -116.3558 178° South 174 200 7,600 960 Climbing Salt Lake Center
04:52PM 43.4936 -116.3133 147° Southeast 208 239 8,300 780 Climbing Salt Lake Center
04:53PM 43.4589 -116.2447 125° Southeast 211 243 9,300 840 Climbing Salt Lake Center
04:54PM 43.4272 -116.1814 125° Southeast 210 242 10,100 780 Climbing Salt Lake Center
04:55PM 43.3289 -115.8366 134° Southeast  Level Estimated
04:55PM 43.3889 -116.1133 128° Southeast 215 247 11,000  Level Salt Lake Center
04:57PM 43.3497 -116.0422 127° Southeast 222 255 11,800 720 Climbing Salt Lake Center
04:58PM 43.3097 -115.9692 127° Southeast 229 264 12,500 660 Climbing Salt Lake Center
04:59PM 43.2700 -115.8950 126° Southeast 232 267 13,200 660 Climbing Salt Lake Center
05:00PM 43.2317 -115.8250 127° Southeast 237 273 13,900 720 Climbing Salt Lake Center
05:01PM 43.1897 -115.7489 127° Southeast 239 275 14,700 480 Climbing Salt Lake Center
05:02PM 43.1464 -115.6717 128° Southeast 245 282 15,000 60 Climbing Salt Lake Center
05:03PM 43.0994 -115.5900 128° Southeast 258 297 14,900 -60 Descending Salt Lake Center
05:04PM 43.0517 -115.5064 128° Southeast 266 306 14,900  Level Salt Lake Center
05:05PM 43.0000 -115.4289 132° Southeast 263 303 14,900  Level Salt Lake Center
05:06PM 42.9539 -115.3544 130° Southeast 265 305 14,900  Level Salt Lake Center
05:07PM 42.9033 -115.2764 131° Southeast 262 302 15,000 -180 Climbing Salt Lake Center
05:08PM 42.8531 -115.1986 131° Southeast 263 303 14,600 -1,020 Descending Salt Lake Center
05:09PM 42.7953 -115.1117 132° Southeast 295 339 12,900 -1,620 Descending Salt Lake Center
05:10PM 42.7392 -115.0208 130° Southeast 304 350 11,400 -1,500 Descending Salt Lake Center
05:11PM 42.6822 -114.9325 131° Southeast 298 343 9,900 -1,380 Descending Salt Lake Center
05:12PM 42.6272 -114.8494 132° Southeast 288 331 8,600 -1,200 Descending Salt Lake Center
05:13PM 42.5819 -114.7789 131° Southeast 263 303 7,500 -1,080 Descending Salt Lake Center